Terminal Aerodrome Forecast
Issued by NWS

Home | Current Version | Previous Version | Graphics & Text | Print | Product List | Glossary On
Versions: 1 2 3 4 5 6 7 8 9 10 11 12 13 14 15 16 17 18 19 20 21
000
FTUS42 KMHX 211121
TAFOAJ
TAF
KOAJ 211121Z 2112/2212 17003KT P6SM OVC006
     FM211400 VRB04KT P6SM BKN015
     FM211600 VRB04KT P6SM BKN020
     FM212300 13006KT P6SM BKN250
      AMD LTD TO CLD VIS AND WIND=

USA.gov is the U.S. government's official web portal to all federal, state and local government web resources and services.